Time;durP1;ratioP1;P1;durP2;ratioP2;P2;SDS_P1;SDS_P2;PMS_P1;PMS_P2;Temp;Humidity;BMP_temperature;BMP_pressure;BME280_temperature;BME280_humidity;BME280_pressure;Samples;Min_cycle;Max_cycle;Signal;HPM_P1;HPM_P2
2023/04/18 00:02:21;;;;;;;20.45;13.10;;;7.80;99.90;;;;;;4994695;28;20065;-70
2023/04/18 00:04:49;;;;;;;17.20;12.50;;;7.80;99.90;;;;;;4998613;28;20026;-71
2023/04/18 00:07:16;;;;;;;20.27;13.38;;;7.80;99.90;;;;;;5003878;28;20036;-70
2023/04/18 00:09:42;;;;;;;15.90;12.10;;;7.70;99.90;;;;;;5014396;28;20553;-69
2023/04/18 00:12:09;;;;;;;20.25;13.02;;;7.80;99.90;;;;;;4999024;28;20022;-69
2023/04/18 00:14:36;;;;;;;16.33;12.75;;;7.70;99.90;;;;;;5000638;28;20038;-70
2023/04/18 00:17:01;;;;;;;17.48;12.05;;;7.70;99.90;;;;;;4998988;28;20018;-69
2023/04/18 00:19:27;;;;;;;16.45;12.68;;;7.70;99.90;;;;;;4998293;28;20080;-69
2023/04/18 00:21:53;;;;;;;18.90;12.90;;;7.70;99.90;;;;;;4999828;28;20125;-70
2023/04/18 00:24:19;;;;;;;18.20;11.98;;;7.70;99.90;;;;;;5001074;28;20358;-69
2023/04/18 00:26:44;;;;;;;17.15;12.57;;;7.60;99.90;;;;;;4996696;28;20034;-69
2023/04/18 00:29:10;;;;;;;18.10;12.20;;;7.60;99.90;;;;;;4994685;28;20421;-69
2023/04/18 00:31:36;;;;;;;21.10;12.30;;;7.60;99.90;;;;;;5003273;28;20022;-69
2023/04/18 00:34:02;;;;;;;18.33;12.20;;;7.70;99.90;;;;;;4993045;28;20026;-69
2023/04/18 00:36:27;;;;;;;19.88;12.52;;;7.60;99.90;;;;;;5006566;28;20611;-69
2023/04/18 00:38:53;;;;;;;22.02;13.73;;;7.60;99.90;;;;;;5011479;28;20055;-69
2023/04/18 00:41:20;;;;;;;17.85;12.10;;;7.60;99.90;;;;;;5001915;28;20100;-69
2023/04/18 00:43:46;;;;;;;18.85;12.13;;;7.60;99.90;;;;;;4995494;28;20096;-68
2023/04/18 00:46:12;;;;;;;18.27;12.27;;;7.60;99.90;;;;;;4997705;28;20562;-68
2023/04/18 00:48:38;;;;;;;18.08;12.52;;;7.60;99.90;;;;;;4997669;28;20026;-68
2023/04/18 00:51:06;;;;;;;16.42;12.05;;;7.70;99.90;;;;;;4993479;28;20101;-68
2023/04/18 00:53:32;;;;;;;18.02;13.05;;;7.70;99.90;;;;;;5006641;28;20053;-68
2023/04/18 00:55:58;;;;;;;19.60;12.38;;;7.80;99.90;;;;;;4993623;28;20062;-68
2023/04/18 00:58:23;;;;;;;16.23;11.93;;;7.80;99.90;;;;;;4992409;28;20469;-68
2023/04/18 01:00:49;;;;;;;21.38;13.18;;;7.80;99.90;;;;;;5006064;28;20402;-68
2023/04/18 01:03:16;;;;;;;17.83;12.95;;;7.80;99.90;;;;;;4995499;28;20114;-68
2023/04/18 01:05:43;;;;;;;17.23;12.02;;;7.80;99.90;;;;;;5012621;28;20038;-68
2023/04/18 01:08:10;;;;;;;17.17;11.90;;;7.80;99.90;;;;;;4996697;28;20030;-68
2023/04/18 01:10:36;;;;;;;17.02;11.93;;;7.80;99.90;;;;;;4995399;28;20081;-69
2023/04/18 01:13:15;;;;;;;16.48;10.65;;;7.80;99.90;;;;;;4992449;28;20897;-68
2023/04/18 01:15:42;;;;;;;19.17;12.25;;;7.80;99.90;;;;;;5010710;28;20037;-68
2023/04/18 01:18:09;;;;;;;16.35;11.73;;;7.80;99.90;;;;;;4999823;28;20113;-68
2023/04/18 01:20:39;;;;;;;20.17;12.55;;;7.80;99.90;;;;;;4995908;28;20042;-68
2023/04/18 01:23:05;;;;;;;17.83;12.20;;;7.80;99.90;;;;;;4994137;28;20279;-69
2023/04/18 01:25:32;;;;;;;18.83;12.73;;;7.80;99.90;;;;;;5001366;28;20664;-68
2023/04/18 01:27:58;;;;;;;15.73;11.50;;;7.80;99.90;;;;;;4992590;28;20030;-68
2023/04/18 01:30:23;;;;;;;16.35;12.13;;;7.80;99.90;;;;;;4996508;28;20113;-68
2023/04/18 01:32:49;;;;;;;18.70;12.32;;;7.80;99.90;;;;;;5009372;28;20117;-68
2023/04/18 01:35:16;;;;;;;17.75;12.50;;;7.70;99.90;;;;;;5001688;28;20031;-68
2023/04/18 01:37:41;;;;;;;17.40;11.95;;;7.70;99.90;;;;;;4994244;28;20041;-68
2023/04/18 01:40:08;;;;;;;17.52;11.10;;;7.70;99.90;;;;;;5008071;28;20065;-68
2023/04/18 01:42:33;;;;;;;19.27;12.05;;;7.70;99.90;;;;;;4998352;28;20109;-68
2023/04/18 01:44:59;;;;;;;18.50;12.55;;;7.70;99.90;;;;;;4999586;28;20117;-67
2023/04/18 01:47:25;;;;;;;15.20;11.25;;;7.70;99.90;;;;;;4993028;28;20027;-68
2023/04/18 01:49:51;;;;;;;15.95;11.52;;;7.70;99.90;;;;;;4997943;28;20069;-68
2023/04/18 01:52:16;;;;;;;16.40;11.82;;;7.70;99.90;;;;;;5004068;28;20497;-69
2023/04/18 01:54:42;;;;;;;16.25;12.10;;;7.60;99.90;;;;;;4999385;28;20045;-70
2023/04/18 01:57:07;;;;;;;17.13;11.75;;;7.70;99.90;;;;;;4992133;28;20355;-69
2023/04/18 01:59:33;;;;;;;16.50;10.60;;;7.70;99.90;;;;;;5009938;28;20129;-69
2023/04/18 02:01:58;;;;;;;16.50;11.55;;;7.70;99.90;;;;;;4993947;28;20053;-69
2023/04/18 02:04:25;;;;;;;16.90;12.27;;;7.70;99.90;;;;;;5007143;28;20337;-69
2023/04/18 02:06:51;;;;;;;17.20;11.95;;;7.70;99.90;;;;;;4994880;28;20034;-69
2023/04/18 02:09:16;;;;;;;17.70;12.38;;;7.60;99.90;;;;;;4995975;28;20081;-69
2023/04/18 02:11:42;;;;;;;17.08;12.20;;;7.60;99.90;;;;;;4995295;28;20034;-70
2023/04/18 02:14:07;;;;;;;17.35;11.55;;;7.60;99.90;;;;;;4996098;28;20022;-69
2023/04/18 02:16:34;;;;;;;17.27;11.68;;;7.60;99.90;;;;;;4991896;28;20026;-68
2023/04/18 02:19:00;;;;;;;16.45;11.82;;;7.60;99.90;;;;;;5000122;28;20033;-69
2023/04/18 02:21:26;;;;;;;17.55;11.80;;;7.60;99.90;;;;;;4997970;28;20068;-70
2023/04/18 02:23:51;;;;;;;17.15;12.90;;;7.60;99.90;;;;;;4992565;28;20078;-69
2023/04/18 02:26:17;;;;;;;19.20;12.52;;;7.60;99.90;;;;;;4994461;28;20034;-68
2023/04/18 02:28:42;;;;;;;17.85;12.25;;;7.60;99.90;;;;;;4995373;28;20109;-69
2023/04/18 02:31:13;;;;;;;15.30;11.48;;;7.70;99.90;;;;;;4993336;28;20022;-68
2023/04/18 02:33:45;;;;;;;16.77;11.77;;;7.70;99.90;;;;;;5020392;28;20030;-69
2023/04/18 02:36:14;;;;;;;17.90;12.88;;;7.60;99.90;;;;;;5005529;28;20026;-69
2023/04/18 02:38:39;;;;;;;14.93;11.43;;;7.70;99.90;;;;;;5030234;28;20102;-69
2023/04/18 02:41:05;;;;;;;18.55;10.95;;;7.70;99.90;;;;;;5009766;28;20506;-67
2023/04/18 02:43:31;;;;;;;16.40;11.25;;;7.80;99.90;;;;;;4999584;28;20536;-68
2023/04/18 02:45:57;;;;;;;24.25;12.43;;;7.80;99.90;;;;;;4995611;28;20076;-67
2023/04/18 02:48:23;;;;;;;14.10;11.00;;;7.80;99.90;;;;;;5004447;28;20054;-67
2023/04/18 02:50:48;;;;;;;17.92;11.98;;;7.80;99.90;;;;;;4995437;28;20026;-67
2023/04/18 02:53:15;;;;;;;17.17;10.77;;;7.80;99.90;;;;;;5025709;28;20037;-68
2023/04/18 02:55:41;;;;;;;17.00;11.93;;;7.90;99.90;;;;;;5013970;28;20034;-68
2023/04/18 02:58:07;;;;;;;15.32;11.23;;;7.80;99.90;;;;;;5011834;28;20030;-68
2023/04/18 03:00:33;;;;;;;17.33;11.85;;;7.80;99.90;;;;;;5003623;28;20069;-74
2023/04/18 03:02:59;;;;;;;15.88;11.23;;;7.90;99.90;;;;;;4999126;28;20418;-75
2023/04/18 03:05:25;;;;;;;15.77;10.60;;;7.80;99.90;;;;;;4995373;28;20023;-75
2023/04/18 03:07:50;;;;;;;15.48;10.48;;;7.90;99.90;;;;;;5001194;28;20505;-74
2023/04/18 03:10:16;;;;;;;16.45;11.43;;;8.00;99.90;;;;;;4999444;28;20621;-74
2023/04/18 03:12:42;;;;;;;16.83;11.75;;;7.90;99.90;;;;;;4997739;28;20509;-74
2023/04/18 03:15:08;;;;;;;16.10;10.80;;;7.90;99.90;;;;;;4995734;28;20113;-74
2023/04/18 03:17:34;;;;;;;16.50;11.27;;;7.90;99.90;;;;;;5007080;28;20421;-74
2023/04/18 03:20:00;;;;;;;15.48;11.15;;;7.80;99.90;;;;;;5006556;28;20041;-74
2023/04/18 03:22:25;;;;;;;17.42;11.40;;;7.90;99.90;;;;;;4997896;28;20426;-74
2023/04/18 03:24:51;;;;;;;15.68;10.80;;;7.90;99.90;;;;;;5008845;28;20034;-74
2023/04/18 03:27:17;;;;;;;16.63;12.02;;;7.80;99.90;;;;;;5008864;28;20026;-74
2023/04/18 03:29:42;;;;;;;13.90;11.15;;;7.90;99.90;;;;;;5005874;28;20037;-74
2023/04/18 03:32:08;;;;;;;15.70;11.05;;;7.80;99.90;;;;;;4996785;28;20027;-74
2023/04/18 03:34:34;;;;;;;15.27;10.52;;;7.90;99.90;;;;;;4994601;28;20030;-75
2023/04/18 03:37:00;;;;;;;19.85;11.40;;;7.90;99.90;;;;;;5005256;28;20030;-75
2023/04/18 03:39:25;;;;;;;15.48;11.23;;;7.90;99.90;;;;;;4994669;28;20039;-75
2023/04/18 03:41:51;;;;;;;14.68;10.82;;;7.90;99.90;;;;;;4994707;28;20034;-75
2023/04/18 03:44:17;;;;;;;15.65;10.65;;;7.90;99.90;;;;;;4995773;28;20026;-75
2023/04/18 03:46:42;;;;;;;17.50;10.40;;;7.90;99.90;;;;;;5000756;28;20084;-75
2023/04/18 03:49:08;;;;;;;15.05;11.60;;;7.90;99.90;;;;;;4994056;28;20360;-75
2023/04/18 03:51:42;;;;;;;16.08;11.38;;;7.90;99.90;;;;;;5003087;28;20417;-75
2023/04/18 03:54:07;;;;;;;14.68;10.18;;;7.90;99.90;;;;;;5004090;28;20029;-75
2023/04/18 03:56:33;;;;;;;17.13;11.07;;;8.00;99.90;;;;;;4998585;28;20030;-75
2023/04/18 03:58:59;;;;;;;14.63;10.77;;;7.90;99.90;;;;;;4996201;28;20037;-75
2023/04/18 04:01:25;;;;;;;14.70;10.45;;;7.90;99.90;;;;;;5007036;28;20423;-75
2023/04/18 04:03:50;;;;;;;16.80;11.35;;;7.90;99.90;;;;;;5007629;28;20470;-75
2023/04/18 04:06:16;;;;;;;15.32;11.00;;;7.90;99.90;;;;;;5008770;28;20470;-75
2023/04/18 04:08:42;;;;;;;16.85;10.88;;;7.80;99.90;;;;;;5007993;28;20041;-75
2023/04/18 04:11:08;;;;;;;17.13;12.40;;;7.90;99.90;;;;;;5007690;28;20026;-74
2023/04/18 04:13:34;;;;;;;15.32;11.32;;;7.80;99.90;;;;;;4993471;28;20468;-75
2023/04/18 04:16:00;;;;;;;18.30;11.52;;;7.80;99.90;;;;;;5005789;28;20041;-74
2023/04/18 04:18:29;;;;;;;18.38;11.57;;;7.80;99.90;;;;;;5010170;28;20027;-73
2023/04/18 04:20:56;;;;;;;18.20;12.18;;;7.80;99.90;;;;;;4994655;28;20038;-74
2023/04/18 04:23:24;;;;;;;17.70;11.65;;;7.80;99.90;;;;;;5011700;28;20084;-75
2023/04/18 04:25:51;;;;;;;16.13;11.27;;;7.70;99.90;;;;;;5006192;28;20068;-73
2023/04/18 04:28:21;;;;;;;15.57;10.88;;;7.70;99.90;;;;;;5009491;28;20068;-72
2023/04/18 04:30:49;;;;;;;22.45;13.02;;;7.60;99.90;;;;;;5007125;28;20486;-74
2023/04/18 04:33:18;;;;;;;16.45;11.18;;;7.70;99.90;;;;;;5007487;28;20108;-75
2023/04/18 04:35:45;;;;;;;17.33;11.52;;;7.60;99.90;;;;;;5003053;28;20030;-75
2023/04/18 04:38:14;;;;;;;19.83;12.05;;;7.60;99.90;;;;;;4996813;28;20030;-75
2023/04/18 04:40:40;;;;;;;17.67;11.85;;;7.60;99.90;;;;;;4996458;28;20387;-75
2023/04/18 04:43:06;;;;;;;16.02;11.27;;;7.60;99.90;;;;;;5009752;28;20053;-73
2023/04/18 04:45:32;;;;;;;17.50;12.10;;;7.60;99.90;;;;;;5001915;28;20026;-74
2023/04/18 04:47:58;;;;;;;16.08;11.52;;;7.60;99.90;;;;;;5012301;28;20034;-72
2023/04/18 04:50:24;;;;;;;18.60;12.18;;;7.50;99.90;;;;;;5001669;28;20037;-74
2023/04/18 04:52:50;;;;;;;18.48;11.73;;;7.50;99.90;;;;;;5008528;28;20030;-73
2023/04/18 04:55:16;;;;;;;17.85;11.93;;;7.50;99.90;;;;;;5009961;28;20027;-74
2023/04/18 04:57:43;;;;;;;16.10;10.95;;;7.50;99.90;;;;;;5001234;28;20115;-74
2023/04/18 05:00:10;;;;;;;19.58;11.60;;;7.50;99.90;;;;;;5003884;28;20464;-74
2023/04/18 05:02:35;;;;;;;17.58;11.23;;;7.40;99.90;;;;;;5013169;28;20120;-74
2023/04/18 05:05:01;;;;;;;15.77;11.88;;;7.40;99.90;;;;;;5000543;28;20113;-74
2023/04/18 05:07:27;;;;;;;17.45;12.20;;;7.40;99.90;;;;;;4997037;28;20022;-74
2023/04/18 05:09:52;;;;;;;19.60;12.50;;;7.40;99.90;;;;;;5001419;28;20036;-74
2023/04/18 05:12:18;;;;;;;18.90;13.00;;;7.50;99.90;;;;;;5009183;28;20110;-74
2023/04/18 05:14:44;;;;;;;17.17;12.25;;;7.50;99.90;;;;;;4995983;28;20034;-74
2023/04/18 05:17:09;;;;;;;17.45;12.23;;;7.50;99.90;;;;;;5013878;28;20026;-74
2023/04/18 05:19:35;;;;;;;19.67;12.98;;;7.50;99.90;;;;;;5018506;28;20030;-74
2023/04/18 05:22:00;;;;;;;19.05;11.68;;;7.50;99.90;;;;;;5003752;28;20438;-74
2023/04/18 05:24:26;;;;;;;15.75;11.80;;;7.50;99.90;;;;;;4992496;28;20030;-74
2023/04/18 05:26:52;;;;;;;18.33;12.30;;;7.50;99.90;;;;;;5004079;28;20437;-73
2023/04/18 05:29:18;;;;;;;16.95;12.27;;;7.60;99.90;;;;;;5007118;28;20058;-73
2023/04/18 05:31:43;;;;;;;15.45;10.93;;;7.60;99.90;;;;;;5010303;28;20448;-75
2023/04/18 05:34:09;;;;;;;15.68;11.48;;;7.60;99.90;;;;;;5014625;28;20546;-73
2023/04/18 05:36:35;;;;;;;18.80;11.02;;;7.60;99.90;;;;;;5000356;28;20285;-74
2023/04/18 05:39:01;;;;;;;20.65;13.55;;;7.60;99.90;;;;;;4997754;28;20026;-73
2023/04/18 05:41:26;;;;;;;17.75;12.50;;;7.50;99.90;;;;;;5000416;28;20084;-74
2023/04/18 05:43:52;;;;;;;17.40;12.38;;;7.50;99.90;;;;;;4991409;28;20540;-73
2023/04/18 05:46:17;;;;;;;18.10;13.07;;;7.50;99.90;;;;;;4992646;28;20022;-73
2023/04/18 05:48:43;;;;;;;16.60;12.30;;;7.50;99.90;;;;;;5009573;28;20373;-74
2023/04/18 05:51:09;;;;;;;16.75;12.00;;;7.50;99.90;;;;;;4992255;28;20038;-74
2023/04/18 05:53:34;;;;;;;16.35;12.55;;;7.60;99.90;;;;;;5005959;28;20108;-74
2023/04/18 05:56:00;;;;;;;18.63;13.10;;;7.60;99.90;;;;;;4997762;28;20482;-74
2023/04/18 05:58:27;;;;;;;19.63;12.10;;;7.60;99.90;;;;;;5018518;28;20029;-74
2023/04/18 06:00:53;;;;;;;17.05;12.20;;;7.70;99.90;;;;;;5002812;28;20535;-74
2023/04/18 06:03:18;;;;;;;15.27;11.80;;;7.70;99.90;;;;;;5003315;28;20106;-74
2023/04/18 06:05:44;;;;;;;15.23;11.30;;;7.80;99.90;;;;;;5013690;28;20064;-74
2023/04/18 06:08:10;;;;;;;18.05;12.00;;;7.80;99.90;;;;;;5002503;28;20037;-76
2023/04/18 06:10:35;;;;;;;16.95;12.30;;;7.90;99.90;;;;;;5000211;28;20076;-74
2023/04/18 06:13:01;;;;;;;17.92;12.90;;;8.00;99.90;;;;;;5000368;28;20042;-74
2023/04/18 06:15:27;;;;;;;16.33;11.27;;;8.00;99.90;;;;;;4999500;28;20026;-75
2023/04/18 06:17:53;;;;;;;17.63;12.68;;;8.10;99.90;;;;;;4997880;28;20038;-74
2023/04/18 06:20:19;;;;;;;17.70;12.07;;;8.10;99.90;;;;;;4999405;28;20182;-74
2023/04/18 06:22:44;;;;;;;15.77;11.80;;;8.10;99.90;;;;;;4996221;28;20053;-72
2023/04/18 06:25:10;;;;;;;16.05;11.23;;;8.30;99.90;;;;;;4996318;28;20025;-75
2023/04/18 06:27:36;;;;;;;16.45;12.48;;;8.30;99.90;;;;;;5009315;28;20128;-70
2023/04/18 06:30:03;;;;;;;16.60;12.15;;;8.30;99.90;;;;;;5001777;28;20022;-72
2023/04/18 06:32:28;;;;;;;19.80;11.73;;;8.40;99.90;;;;;;5000604;28;20018;-70
2023/04/18 06:34:54;;;;;;;18.63;12.43;;;8.60;99.90;;;;;;4995769;28;20092;-73
2023/04/18 06:37:20;;;;;;;16.15;11.30;;;8.70;99.90;;;;;;5001856;28;20026;-72
2023/04/18 06:39:46;;;;;;;15.65;11.25;;;8.70;99.90;;;;;;4996094;28;20068;-73
2023/04/18 06:42:11;;;;;;;17.13;10.63;;;8.80;99.90;;;;;;5001634;28;20393;-73
2023/04/18 06:44:37;;;;;;;16.85;11.43;;;8.80;99.90;;;;;;4995708;28;20521;-74
2023/04/18 06:47:02;;;;;;;15.65;11.93;;;8.90;99.90;;;;;;5005556;28;20061;-73
2023/04/18 06:49:28;;;;;;;17.95;12.05;;;8.90;99.90;;;;;;5003136;28;20095;-73
2023/04/18 06:51:54;;;;;;;16.90;10.10;;;9.00;99.90;;;;;;4994058;28;20037;-74
2023/04/18 06:54:19;;;;;;;16.20;11.23;;;9.00;99.90;;;;;;5007948;28;20030;-74
2023/04/18 06:56:45;;;;;;;15.05;11.25;;;9.00;99.90;;;;;;4999543;28;21711;-73
2023/04/18 06:59:10;;;;;;;15.32;11.80;;;9.00;99.90;;;;;;5016291;28;20034;-73
2023/04/18 07:01:40;;;;;;;18.85;11.93;;;9.00;99.90;;;;;;4996612;28;20125;-73
2023/04/18 07:04:07;;;;;;;15.00;9.57;;;9.10;99.90;;;;;;5031248;28;20026;-73
2023/04/18 07:06:34;;;;;;;17.13;11.10;;;9.10;99.90;;;;;;5003201;28;20042;-72
2023/04/18 07:09:00;;;;;;;15.57;11.45;;;9.10;99.90;;;;;;4996916;28;20018;-72
2023/04/18 07:11:26;;;;;;;19.83;11.93;;;9.20;99.90;;;;;;4995872;28;20042;-72
2023/04/18 07:13:52;;;;;;;14.27;11.50;;;9.20;99.90;;;;;;4995983;28;20112;-73
2023/04/18 07:16:18;;;;;;;16.38;10.20;;;9.20;99.90;;;;;;4994773;28;20054;-73
2023/04/18 07:18:43;;;;;;;19.33;10.73;;;9.30;99.90;;;;;;4998137;28;20030;-73
2023/04/18 07:21:09;;;;;;;17.13;11.18;;;9.20;99.90;;;;;;4995531;28;20490;-73
2023/04/18 07:23:36;;;;;;;16.88;10.85;;;9.30;99.90;;;;;;4994288;28;20109;-73
2023/04/18 07:26:02;;;;;;;14.90;10.80;;;9.30;99.90;;;;;;4994870;28;20112;-73
2023/04/18 07:28:31;;;;;;;20.55;12.13;;;9.40;99.90;;;;;;4998897;28;20031;-73
2023/04/18 07:30:57;;;;;;;13.05;10.48;;;9.30;99.90;;;;;;5002731;28;20033;-73
2023/04/18 07:33:24;;;;;;;16.88;11.15;;;9.30;99.90;;;;;;4999269;28;20036;-73
2023/04/18 07:35:50;;;;;;;15.63;11.38;;;9.30;99.90;;;;;;4995021;28;20089;-73
2023/04/18 07:38:16;;;;;;;15.40;11.50;;;9.40;99.90;;;;;;5004470;28;20453;-73
2023/04/18 07:40:43;;;;;;;18.58;11.15;;;9.40;99.90;;;;;;4995746;28;20078;-73
2023/04/18 07:43:09;;;;;;;17.23;11.52;;;9.50;99.90;;;;;;5008030;28;20408;-73
2023/04/18 07:45:37;;;;;;;15.30;10.88;;;9.50;99.90;;;;;;5013262;28;20117;-73
2023/04/18 07:48:03;;;;;;;16.48;11.73;;;9.50;99.90;;;;;;5005524;28;20034;-73
2023/04/18 07:50:29;;;;;;;14.60;11.50;;;9.60;99.90;;;;;;5007820;28;20069;-73
2023/04/18 07:52:54;;;;;;;16.88;10.52;;;9.60;99.90;;;;;;5003395;28;20030;-73
2023/04/18 07:55:20;;;;;;;15.13;11.02;;;9.70;99.90;;;;;;5005324;28;20058;-73
2023/04/18 07:57:49;;;;;;;17.55;13.07;;;9.70;99.90;;;;;;5001578;28;20068;-72
2023/04/18 08:00:17;;;;;;;17.90;11.52;;;9.80;99.90;;;;;;5002086;28;20042;-73
2023/04/18 08:02:43;;;;;;;15.32;11.38;;;9.80;99.90;;;;;;4994499;28;20285;-73
2023/04/18 08:05:09;;;;;;;15.25;11.18;;;9.90;99.90;;;;;;4999173;28;20328;-73
2023/04/18 08:07:35;;;;;;;18.25;11.63;;;10.00;99.90;;;;;;5006722;28;20473;-74
2023/04/18 08:10:02;;;;;;;17.63;12.40;;;10.10;99.90;;;;;;5009546;28;20076;-74
2023/04/18 08:12:27;;;;;;;15.80;11.15;;;10.10;99.90;;;;;;4993397;28;20033;-74
2023/04/18 08:14:53;;;;;;;19.52;13.30;;;10.20;99.90;;;;;;5001307;28;20033;-74
2023/04/18 08:17:19;;;;;;;17.55;11.05;;;10.20;99.90;;;;;;4997343;28;20026;-73
2023/04/18 08:19:45;;;;;;;15.75;11.38;;;10.20;99.90;;;;;;5013885;28;20087;-74
2023/04/18 08:22:10;;;;;;;16.95;12.10;;;10.20;99.90;;;;;;5006909;28;20121;-73
2023/04/18 08:24:39;;;;;;;15.75;11.27;;;10.30;99.90;;;;;;4998554;28;20027;-73
2023/04/18 08:27:05;;;;;;;19.58;13.43;;;10.30;99.90;;;;;;4992643;28;20042;-73
2023/04/18 08:29:31;;;;;;;20.60;11.48;;;10.30;99.90;;;;;;4993975;28;20109;-73
2023/04/18 08:31:57;;;;;;;17.63;12.40;;;10.30;99.90;;;;;;4997037;28;20114;-73
2023/04/18 08:34:23;;;;;;;15.30;10.70;;;10.30;99.90;;;;;;4999339;28;20037;-73
2023/04/18 08:36:51;;;;;;;12.80;9.77;;;10.30;99.90;;;;;;5003447;28;20390;-73
2023/04/18 08:39:17;;;;;;;19.95;10.60;;;10.30;99.90;;;;;;5007978;28;20451;-73
2023/04/18 08:41:48;;;;;;;22.70;12.00;;;10.30;99.90;;;;;;5007918;28;20056;-73
2023/04/18 08:44:13;;;;;;;15.48;10.90;;;10.30;99.90;;;;;;5007903;28;20041;-73
2023/04/18 08:46:39;;;;;;;16.77;10.65;;;10.30;99.90;;;;;;5000784;28;20030;-73
2023/04/18 08:49:05;;;;;;;14.43;10.75;;;10.30;99.90;;;;;;5006275;28;20667;-73
2023/04/18 08:51:33;;;;;;;17.38;11.00;;;10.30;99.90;;;;;;4997515;28;20536;-72
2023/04/18 08:54:03;;;;;;;15.38;11.40;;;10.40;99.90;;;;;;5009502;28;20051;-73
2023/04/18 08:56:30;;;;;;;16.50;11.07;;;10.50;99.90;;;;;;5006166;28;20034;-73
2023/04/18 08:58:58;;;;;;;13.52;10.32;;;10.50;99.90;;;;;;4999661;28;20038;-73
2023/04/18 09:02:00;;;;;;;14.85;10.60;;;10.50;99.90;;;;;;4994347;28;20056;-73
2023/04/18 09:04:47;;;;;;;14.25;10.32;;;10.60;99.90;;;;;;5003414;28;20394;-73
2023/04/18 09:07:18;;;;;;;15.48;10.07;;;10.60;99.90;;;;;;4998545;28;20026;-72
2023/04/18 09:09:51;;;;;;;17.27;11.13;;;10.70;99.90;;;;;;5008049;28;20430;-73
2023/04/18 09:12:21;;;;;;;16.00;11.55;;;10.80;99.90;;;;;;4997302;28;20030;-73
2023/04/18 09:14:56;;;;;;;15.23;10.73;;;10.90;99.90;;;;;;4999998;28;20438;-72
2023/04/18 09:17:42;;;;;;;18.55;11.02;;;11.10;99.90;;;;;;5001676;28;20497;-73
2023/04/18 09:20:09;;;;;;;14.57;9.43;;;11.20;99.90;;;;;;4997113;28;20403;-74
2023/04/18 09:22:51;;;;;;;16.23;10.07;;;11.30;99.90;;;;;;4996336;28;20042;-72
2023/04/18 09:25:33;;;;;;;20.73;10.55;;;11.40;99.90;;;;;;4994638;28;20038;-73
2023/04/18 09:28:00;;;;;;;14.20;9.70;;;11.50;99.90;;;;;;4992779;28;20050;-73
2023/04/18 09:30:40;;;;;;;13.73;10.48;;;11.60;99.90;;;;;;4995604;28;20064;-73
2023/04/18 09:33:09;;;;;;;13.80;9.88;;;11.70;99.90;;;;;;4993252;28;20035;-74
2023/04/18 09:35:38;;;;;;;15.15;9.77;;;11.80;99.90;;;;;;4992811;28;20038;-74
2023/04/18 09:38:05;;;;;;;15.85;10.52;;;11.90;99.90;;;;;;4992762;28;20379;-74
2023/04/18 09:40:31;;;;;;;14.05;9.57;;;12.00;99.90;;;;;;4994226;28;20104;-74
2023/04/18 09:42:57;;;;;;;14.25;10.13;;;12.10;99.90;;;;;;4992716;28;20172;-74
2023/04/18 09:45:24;;;;;;;17.17;10.73;;;12.20;99.90;;;;;;4992393;28;20117;-74
2023/04/18 09:47:50;;;;;;;14.55;11.02;;;12.30;99.80;;;;;;5009829;28;20034;-74
2023/04/18 09:50:17;;;;;;;13.10;10.18;;;12.30;99.80;;;;;;4993155;28;20030;-73
2023/04/18 09:52:44;;;;;;;11.43;7.95;;;12.30;99.70;;;;;;4993174;28;20057;-74
2023/04/18 09:55:20;;;;;;;15.05;10.43;;;12.40;99.70;;;;;;5000838;28;20022;-74
2023/04/18 09:57:47;;;;;;;17.13;10.48;;;12.40;99.30;;;;;;4993485;28;20030;-73
2023/04/18 10:00:24;;;;;;;13.35;9.93;;;12.50;99.60;;;;;;5010690;28;20053;-74
2023/04/18 10:03:08;;;;;;;17.55;10.10;;;12.50;99.10;;;;;;4999791;28;20080;-73
2023/04/18 10:05:37;;;;;;;14.23;10.80;;;12.40;99.00;;;;;;4992346;28;20044;-74
2023/04/18 10:08:03;;;;;;;14.60;9.68;;;12.40;99.20;;;;;;4993349;28;20080;-74
2023/04/18 10:10:29;;;;;;;14.90;11.25;;;12.50;99.40;;;;;;5001439;28;20026;-74
2023/04/18 10:12:56;;;;;;;14.75;9.20;;;12.60;99.20;;;;;;4993359;28;20031;-74
2023/04/18 10:15:25;;;;;;;13.73;9.98;;;12.60;99.10;;;;;;4995488;28;20085;-74
2023/04/18 10:17:59;;;;;;;15.52;10.25;;;12.60;98.90;;;;;;5009043;28;20393;-73
2023/04/18 10:20:29;;;;;;;13.80;10.05;;;12.70;98.90;;;;;;5009570;28;20041;-73
2023/04/18 10:22:56;;;;;;;14.15;9.90;;;12.70;99.10;;;;;;4992165;28;20042;-72
2023/04/18 10:25:40;;;;;;;15.30;11.85;;;12.80;99.20;;;;;;5010415;28;20030;-73
2023/04/18 10:28:06;;;;;;;21.60;11.23;;;12.80;98.90;;;;;;4994427;28;20042;-73
2023/04/18 10:30:41;;;;;;;13.05;9.38;;;12.90;99.00;;;;;;5004965;28;20559;-73
2023/04/18 10:33:23;;;;;;;13.68;10.10;;;12.90;98.70;;;;;;5007447;28;20050;-73
2023/04/18 10:36:16;;;;;;;14.13;9.95;;;13.00;99.10;;;;;;5003060;28;20038;-73
2023/04/18 10:39:22;;;;;;;16.05;9.40;;;13.20;98.90;;;;;;4992031;28;20050;-73
2023/04/18 10:41:49;;;;;;;12.38;9.05;;;13.40;98.80;;;;;;4991632;28;20620;-73
2023/04/18 10:44:17;;;;;;;13.05;8.68;;;13.40;98.30;;;;;;4992896;28;20125;-74
2023/04/18 10:47:05;;;;;;;14.80;9.35;;;13.40;98.10;;;;;;4996121;28;20481;-73
2023/04/18 10:49:30;;;;;;;12.27;9.82;;;13.40;98.20;;;;;;4991616;28;20027;-73
2023/04/18 10:51:58;;;;;;;15.90;9.38;;;13.40;98.10;;;;;;4992580;28;20041;-73
2023/04/18 10:55:00;;;;;;;13.55;9.68;;;13.50;98.20;;;;;;4995780;28;20213;-72
2023/04/18 10:57:40;;;;;;;13.57;9.90;;;13.50;98.10;;;;;;4995387;28;20038;-73
2023/04/18 11:00:10;;;;;;;14.75;10.07;;;13.50;97.90;;;;;;5012209;28;20060;-73
2023/04/18 11:02:37;;;;;;;12.32;9.27;;;13.40;97.70;;;;;;5008932;28;20073;-72
2023/04/18 11:05:05;;;;;;;12.95;8.85;;;13.40;97.90;;;;;;4997201;28;20037;-73
2023/04/18 11:07:44;;;;;;;15.27;10.10;;;13.50;98.00;;;;;;4995289;28;20038;-73
2023/04/18 11:10:11;;;;;;;14.07;9.13;;;13.50;98.00;;;;;;5012933;28;20096;-73
2023/04/18 11:12:39;;;;;;;14.05;10.10;;;13.60;97.90;;;;;;5007214;28;20025;-73
2023/04/18 11:15:20;;;;;;;11.60;9.35;;;13.60;97.70;;;;;;5013901;28;20452;-72
2023/04/18 11:17:45;;;;;;;14.93;9.70;;;13.60;97.70;;;;;;4995874;28;20038;-73
2023/04/18 11:20:13;;;;;;;14.98;9.13;;;13.60;97.70;;;;;;4999959;28;20430;-72
2023/04/18 11:22:50;;;;;;;13.40;9.35;;;13.70;97.60;;;;;;4994890;28;20398;-73
2023/04/18 11:25:17;;;;;;;15.80;10.10;;;13.70;97.60;;;;;;4989928;28;20674;-73
2023/04/18 11:27:44;;;;;;;15.10;9.40;;;13.70;97.40;;;;;;5001581;28;20482;-73
2023/04/18 11:30:11;;;;;;;17.75;10.45;;;13.70;97.30;;;;;;4996271;28;20485;-72
2023/04/18 11:32:36;;;;;;;15.75;9.70;;;13.70;97.40;;;;;;4994899;28;20030;-73
2023/04/18 11:35:02;;;;;;;12.82;10.15;;;13.70;97.40;;;;;;4997812;28;20110;-73
2023/04/18 11:37:28;;;;;;;14.10;9.63;;;13.70;97.50;;;;;;5005179;28;20030;-72
2023/04/18 11:39:54;;;;;;;14.60;10.98;;;13.80;97.50;;;;;;4998790;28;20036;-73
2023/04/18 11:42:20;;;;;;;13.63;8.90;;;13.80;97.30;;;;;;5007302;28;20092;-72
2023/04/18 11:44:47;;;;;;;14.93;10.05;;;13.80;97.40;;;;;;5001508;28;20064;-72
2023/04/18 11:47:30;;;;;;;14.02;9.95;;;13.80;97.50;;;;;;5000841;28;20441;-72
2023/04/18 11:50:05;;;;;;;13.35;10.15;;;13.80;97.50;;;;;;5019372;28;20033;-69
2023/04/18 11:52:32;;;;;;;12.13;8.82;;;13.90;97.60;;;;;;5008574;28;20189;-72
2023/04/18 11:55:12;;;;;;;12.23;9.15;;;14.00;97.60;;;;;;4996966;28;20121;-71
2023/04/18 11:57:38;;;;;;;12.93;8.38;;;14.10;97.40;;;;;;5003754;28;20026;-72
2023/04/18 12:00:07;;;;;;;13.88;9.05;;;14.10;97.30;;;;;;5019303;28;20054;-72
2023/04/18 12:02:50;;;;;;;12.93;9.80;;;14.00;97.40;;;;;;5019121;28;20041;-72
2023/04/18 12:05:32;;;;;;;14.35;9.18;;;14.10;97.50;;;;;;5001381;28;20018;-72
2023/04/18 12:08:12;;;;;;;16.30;9.73;;;14.10;97.50;;;;;;5011681;28;20080;-72
2023/04/18 12:10:46;;;;;;;11.55;9.13;;;14.10;97.30;;;;;;5008151;28;20026;-75
2023/04/18 12:13:12;;;;;;;13.40;9.65;;;14.10;97.30;;;;;;5006149;28;20108;-72
2023/04/18 12:15:42;;;;;;;12.32;8.57;;;14.20;97.30;;;;;;5005483;28;20030;-73
2023/04/18 12:18:09;;;;;;;16.83;10.32;;;14.20;97.40;;;;;;5003531;28;20042;-74
2023/04/18 12:20:54;;;;;;;13.07;9.75;;;14.20;97.40;;;;;;4999509;28;20026;-73
2023/04/18 12:23:39;;;;;;;15.50;10.63;;;14.30;97.40;;;;;;5007985;28;20033;-73
2023/04/18 12:26:06;;;;;;;15.55;11.50;;;14.30;97.50;;;;;;5012923;28;20044;-73
2023/04/18 12:28:32;;;;;;;12.95;9.45;;;14.30;97.50;;;;;;5008230;28;20108;-74
2023/04/18 12:30:58;;;;;;;13.00;9.80;;;14.40;97.60;;;;;;5002911;28;20210;-73
2023/04/18 12:33:25;;;;;;;13.23;10.65;;;14.40;97.30;;;;;;5012056;28;20394;-74
2023/04/18 12:35:51;;;;;;;14.60;11.40;;;14.30;97.30;;;;;;5004778;28;20055;-73
2023/04/18 12:38:21;;;;;;;13.55;11.10;;;14.30;97.40;;;;;;5007381;28;20084;-74
2023/04/18 12:40:47;;;;;;;15.73;11.93;;;14.30;97.60;;;;;;4993118;28;20121;-73